createdAt,value
2019-05-22T00:02:28.179Z,100496.61
2019-05-22T00:05:11.806Z,100495.93
2019-05-22T00:07:39.182Z,100495.33
2019-05-22T00:10:08.559Z,100504.72
2019-05-22T00:12:46.261Z,100502.84
2019-05-22T00:15:07.348Z,100502.84
2019-05-22T00:17:34.223Z,100497.61
2019-05-22T00:20:02.969Z,100495.75
2019-05-22T00:22:32.828Z,100494.39
2019-05-22T00:25:01.322Z,100494.39
2019-05-22T00:27:31.713Z,100479.86
2019-05-22T00:29:59.893Z,100500.44
2019-05-22T00:32:28.384Z,100496.75
2019-05-22T00:34:55.668Z,100482.29
2019-05-22T00:37:22.745Z,100501.44
2019-05-22T00:39:50.756Z,100499.11
2019-05-22T00:42:20.139Z,100499.11
2019-05-22T00:44:47.858Z,100500.05
2019-05-22T00:47:16.661Z,100491.42
2019-05-22T00:49:45.792Z,100497.30
2019-05-22T00:52:41.573Z,100497.30
2019-05-22T00:55:26.848Z,100505.23
2019-05-22T00:58:03.302Z,100505.23
2019-05-22T01:00:36.818Z,100511.20
2019-05-22T01:03:06.506Z,100511.20
2019-05-22T01:05:36.380Z,100503.67
2019-05-22T01:08:05.944Z,100507.44
2019-05-22T01:10:33.034Z,100452.00
2019-05-22T01:13:00.115Z,100452.00
2019-05-22T01:15:28.312Z,100502.42
2019-05-22T01:17:55.609Z,100511.99
2019-05-22T01:20:25.620Z,100511.99
2019-05-22T01:22:56.783Z,100508.59
2019-05-22T01:25:23.853Z,100515.76
2019-05-22T01:27:51.851Z,100518.86
2019-05-22T01:30:28.384Z,100527.34
2019-05-22T01:32:58.094Z,100525.70
2019-05-22T01:35:30.479Z,100523.47
2019-05-22T01:37:59.132Z,100523.28
2019-05-22T01:40:41.184Z,100524.56
2019-05-22T01:43:09.241Z,100524.56
2019-05-22T01:45:52.265Z,100532.75
2019-05-22T01:48:23.239Z,100530.81
2019-05-22T01:50:54.724Z,100537.41
2019-05-22T01:53:26.324Z,100538.53
2019-05-22T01:56:05.736Z,100534.88
2019-05-22T01:58:33.708Z,100539.02
2019-05-22T02:01:02.561Z,100539.02
2019-05-22T02:03:30.591Z,100532.25
2019-05-22T02:05:57.555Z,100534.52
2019-05-22T02:08:26.413Z,100541.27
2019-05-22T02:10:57.061Z,100541.27
2019-05-22T02:13:32.608Z,100538.36
2019-05-22T02:15:59.887Z,100534.89
2019-05-22T02:18:27.165Z,100544.63
2019-05-22T02:20:54.369Z,100535.87
2019-05-22T02:23:21.259Z,100537.31
2019-05-22T02:25:49.642Z,100537.31
2019-05-22T02:28:16.830Z,100539.91
2019-05-22T02:30:45.729Z,100545.03
2019-05-22T02:33:13.563Z,100538.17
2019-05-22T02:35:42.169Z,100544.12
2019-05-22T02:38:11.570Z,100533.70
2019-05-22T02:40:41.129Z,100545.61
2019-05-22T02:43:08.518Z,100545.61
2019-05-22T02:45:35.392Z,100544.93
2019-05-22T02:48:02.978Z,100548.51
2019-05-22T02:50:32.092Z,100558.83
2019-05-22T02:52:59.169Z,100558.83
2019-05-22T02:55:26.433Z,100544.14
2019-05-22T02:57:53.511Z,100542.52
2019-05-22T03:00:21.751Z,100542.52
2019-05-22T03:02:52.428Z,100553.55
2019-05-22T03:05:20.131Z,100540.80
2019-05-22T03:07:47.677Z,100547.33
2019-05-22T03:10:17.463Z,100536.91
2019-05-22T03:12:45.154Z,100546.55
2019-05-22T03:15:15.499Z,100555.13
2019-05-22T03:17:44.353Z,100561.52
2019-05-22T03:20:12.993Z,100561.52
2019-05-22T03:22:51.095Z,100552.82
2019-05-22T03:25:19.273Z,100552.82
2019-05-22T03:27:49.541Z,100564.31
2019-05-22T03:30:23.707Z,100567.14
2019-05-22T03:32:51.396Z,100567.14
2019-05-22T03:35:19.688Z,100561.81
2019-05-22T03:37:46.806Z,100561.81
2019-05-22T03:40:15.009Z,100565.97
2019-05-22T03:42:41.967Z,100565.97
2019-05-22T03:45:10.297Z,100572.63
2019-05-22T03:47:37.645Z,100571.95
2019-05-22T03:50:06.472Z,100576.66
2019-05-22T03:52:33.870Z,100579.87
2019-05-22T03:55:00.740Z,100578.81
2019-05-22T03:57:27.525Z,100580.47
2019-05-22T03:59:54.303Z,100588.55
2019-05-22T04:02:21.390Z,100585.44
2019-05-22T04:04:48.453Z,100584.30
2019-05-22T04:07:20.847Z,100584.30
2019-05-22T04:09:50.928Z,100599.05
2019-05-22T04:12:17.722Z,100597.91
2019-05-22T04:14:45.183Z,100608.03
2019-05-22T04:17:14.348Z,100608.61
2019-05-22T04:19:49.172Z,100601.94
2019-05-22T04:22:12.399Z,100604.38
2019-05-22T04:24:40.197Z,100604.38
2019-05-22T04:27:08.285Z,100601.30
2019-05-22T04:29:35.584Z,100615.95
2019-05-22T04:32:19.824Z,100615.95
2019-05-22T04:34:47.852Z,100615.36
2019-05-22T04:37:15.505Z,100618.96
2019-05-22T04:39:44.613Z,100625.51
2019-05-22T04:42:11.823Z,100625.51
2019-05-22T04:44:57.778Z,100626.65
2019-05-22T04:47:25.063Z,100628.90
2019-05-22T04:50:06.831Z,100621.09
2019-05-22T04:52:20.811Z,100621.09
2019-05-22T04:54:47.713Z,100635.29
2019-05-22T04:57:15.010Z,100632.78
2019-05-22T04:59:41.750Z,100636.94
2019-05-22T05:02:09.339Z,100636.94
2019-05-22T05:04:36.736Z,100644.34
2019-05-22T05:07:06.244Z,100648.42
2019-05-22T05:09:32.932Z,100644.14
2019-05-22T05:11:59.818Z,100644.14
2019-05-22T05:14:26.513Z,100653.12
2019-05-22T05:16:53.594Z,100649.64
2019-05-22T05:19:20.392Z,100647.72
2019-05-22T05:21:47.479Z,100647.72
2019-05-22T05:24:14.241Z,100655.95
2019-05-22T05:26:41.398Z,100654.58
2019-05-22T05:29:29.822Z,100654.58
2019-05-22T05:31:58.252Z,100655.36
2019-05-22T05:34:49.488Z,100666.34
2019-05-22T05:37:18.662Z,100659.88
2019-05-22T05:40:25.236Z,100659.59
2019-05-22T05:42:52.570Z,100675.32
2019-05-22T05:45:19.465Z,100671.67
2019-05-22T05:47:55.422Z,100674.26
2019-05-22T05:50:37.878Z,100674.26
2019-05-22T05:52:53.830Z,100679.86
2019-05-22T05:55:23.102Z,100678.61
2019-05-22T05:58:22.179Z,100678.61
2019-05-22T06:00:54.059Z,100669.24
2019-05-22T06:03:31.760Z,100692.60
2019-05-22T06:06:01.665Z,100692.60
2019-05-22T06:08:28.551Z,100691.16
2019-05-22T06:11:32.839Z,100692.99
2019-05-22T06:13:59.695Z,100687.00
2019-05-22T06:17:11.560Z,100691.34
2019-05-22T06:19:42.994Z,100697.51
2019-05-22T06:22:11.058Z,100697.51
2019-05-22T06:25:07.693Z,100696.09
2019-05-22T06:27:51.744Z,100700.22
2019-05-22T06:30:37.284Z,100710.36
2019-05-22T06:33:42.124Z,100711.70
2019-05-22T06:36:16.914Z,100712.48
2019-05-22T06:39:16.054Z,100723.69
2019-05-22T06:41:43.338Z,100723.69
2019-05-22T06:44:40.172Z,100724.94
2019-05-22T06:47:09.722Z,100714.98
2019-05-22T06:49:48.406Z,100737.48
2019-05-22T06:52:16.296Z,100737.48
2019-05-22T06:54:43.754Z,100739.67
2019-05-22T06:57:14.534Z,100732.84
2019-05-22T06:59:44.212Z,100731.02
2019-05-22T07:02:13.030Z,100733.98
2019-05-22T07:04:40.122Z,100733.98
2019-05-22T07:07:11.534Z,100735.86
2019-05-22T07:09:36.793Z,100737.85
2019-05-22T07:12:05.472Z,100742.96
2019-05-22T07:14:32.513Z,100743.25
2019-05-22T07:17:00.906Z,100742.77
2019-05-22T07:19:28.371Z,100747.59
2019-05-22T07:21:55.968Z,100760.34
2019-05-22T07:24:23.265Z,100760.34
2019-05-22T07:26:51.747Z,100764.52
2019-05-22T07:29:19.025Z,100768.83
2019-05-22T07:31:45.803Z,100759.47
2019-05-22T07:34:12.625Z,100769.91
2019-05-22T07:36:39.834Z,100773.54
2019-05-22T07:39:07.829Z,100774.25
2019-05-22T07:41:34.833Z,100774.25
2019-05-22T07:44:01.733Z,100777.02
2019-05-22T07:46:30.990Z,100782.31
2019-05-22T07:48:57.616Z,100787.66
2019-05-22T07:51:25.329Z,100787.45
2019-05-22T07:53:52.324Z,100782.08
2019-05-22T07:56:20.495Z,100787.09
2019-05-22T07:58:47.600Z,100790.55
2019-05-22T08:01:14.503Z,100790.55
2019-05-22T08:03:43.846Z,100801.29
2019-05-22T08:06:10.855Z,100810.23
2019-05-22T08:08:39.127Z,100806.69
2019-05-22T08:11:06.923Z,100806.69
2019-05-22T08:13:34.806Z,100820.25
2019-05-22T08:16:02.161Z,100815.91
2019-05-22T08:18:35.856Z,100815.91
2019-05-22T08:21:02.943Z,100820.01
2019-05-22T08:23:30.034Z,100821.33
2019-05-22T08:25:58.375Z,100820.88
2019-05-22T08:28:26.052Z,100820.76
2019-05-22T08:30:53.059Z,100819.09
2019-05-22T08:33:21.644Z,100819.09
2019-05-22T08:35:48.666Z,100817.64
2019-05-22T08:38:17.965Z,100826.72
2019-05-22T08:40:45.776Z,100837.23
2019-05-22T08:43:12.717Z,100821.70
2019-05-22T08:45:39.462Z,100821.70
2019-05-22T08:48:06.528Z,100841.00
2019-05-22T08:50:34.066Z,100852.28
2019-05-22T08:53:01.236Z,100852.28
2019-05-22T08:55:28.739Z,100856.55
2019-05-22T08:57:55.823Z,100856.55
2019-05-22T09:00:24.476Z,100861.09
2019-05-22T09:02:51.699Z,100861.84
2019-05-22T09:05:21.681Z,100861.84
2019-05-22T09:07:47.617Z,100864.35
2019-05-22T09:10:15.623Z,100858.16
2019-05-22T09:12:42.386Z,100871.00
2019-05-22T09:15:10.376Z,100871.20
2019-05-22T09:17:37.841Z,100871.20
2019-05-22T09:20:05.526Z,100871.83
2019-05-22T09:22:40.847Z,100874.93
2019-05-22T09:25:06.271Z,100845.83
2019-05-22T09:27:33.919Z,100890.23
2019-05-22T09:30:00.643Z,100883.98
2019-05-22T09:32:27.394Z,100880.20
2019-05-22T09:34:54.896Z,100884.73
2019-05-22T09:37:21.942Z,100884.73
2019-05-22T09:39:48.816Z,100891.09
2019-05-22T09:42:15.869Z,100887.16
2019-05-22T09:44:42.863Z,100887.16
2019-05-22T09:47:10.442Z,100893.06
2019-05-22T09:49:37.958Z,100897.10
2019-05-22T09:52:06.996Z,100901.77
2019-05-22T09:54:34.270Z,100891.82
2019-05-22T09:57:01.402Z,100891.82
2019-05-22T09:59:28.410Z,100901.36
2019-05-22T10:01:55.428Z,100911.03
2019-05-22T10:04:22.322Z,100911.03
2019-05-22T10:06:49.101Z,100909.58
2019-05-22T10:09:16.315Z,100909.58
2019-05-22T10:11:43.106Z,100917.61
2019-05-22T10:14:10.141Z,100921.19
2019-05-22T10:16:37.258Z,100914.80
2019-05-22T10:19:04.581Z,100914.73
2019-05-22T10:21:31.542Z,100914.73
2019-05-22T10:23:58.626Z,100920.23
2019-05-22T10:26:25.954Z,100916.53
2019-05-22T10:28:54.538Z,100926.42
2019-05-22T10:31:21.918Z,100926.42
2019-05-22T10:33:51.933Z,100930.27
2019-05-22T10:36:17.414Z,100930.27
2019-05-22T10:38:44.363Z,100939.46
2019-05-22T10:41:12.037Z,100938.79
2019-05-22T10:43:39.582Z,100944.72
2019-05-22T10:46:07.840Z,100935.47
2019-05-22T10:48:34.945Z,100947.91
2019-05-22T10:51:01.879Z,100947.91
2019-05-22T10:53:33.569Z,100950.42
2019-05-22T10:55:57.833Z,100949.35
2019-05-22T10:58:24.874Z,100950.06
2019-05-22T11:00:51.760Z,100951.31
2019-05-22T11:03:18.639Z,100948.80
2019-05-22T11:05:46.170Z,100963.19
2019-05-22T11:08:12.943Z,100963.94
2019-05-22T11:10:39.753Z,100958.83
2019-05-22T11:13:06.938Z,100958.83
2019-05-22T11:15:33.819Z,100963.35
2019-05-22T11:18:01.655Z,100963.08
2019-05-22T11:20:29.528Z,100979.41
2019-05-22T11:22:56.830Z,100978.57
2019-05-22T11:25:24.430Z,100984.28
2019-05-22T11:27:52.382Z,100985.15
2019-05-22T11:30:19.606Z,100985.15
2019-05-22T11:32:46.517Z,100987.25
2019-05-22T11:35:13.927Z,100989.18
2019-05-22T11:37:41.109Z,100995.77
2019-05-22T11:40:09.074Z,100988.33
2019-05-22T11:42:36.754Z,100992.67
2019-05-22T11:45:04.171Z,100999.94
2019-05-22T11:47:31.136Z,101000.40
2019-05-22T11:49:58.014Z,101000.01
2019-05-22T11:52:26.803Z,101003.08
2019-05-22T11:54:53.595Z,101002.63
2019-05-22T11:57:21.885Z,101001.19
2019-05-22T11:59:48.926Z,101000.86
2019-05-22T12:02:16.202Z,101007.83
2019-05-22T12:04:47.904Z,101007.85
2019-05-22T12:07:11.880Z,101015.20
2019-05-22T12:09:39.420Z,101017.00
2019-05-22T12:12:07.363Z,101023.26
2019-05-22T12:14:34.662Z,101019.02
2019-05-22T12:17:02.356Z,101023.63
2019-05-22T12:19:29.293Z,101025.69
2019-05-22T12:21:56.087Z,101021.07
2019-05-22T12:24:27.906Z,101023.67
2019-05-22T12:26:52.195Z,101043.47
2019-05-22T12:29:19.388Z,101040.08
2019-05-22T12:31:49.336Z,101042.41
2019-05-22T12:34:16.135Z,101034.77
2019-05-22T12:36:42.854Z,101029.95
2019-05-22T12:39:09.958Z,101044.45
2019-05-22T12:41:37.079Z,101047.48
2019-05-22T12:44:03.892Z,101043.73
2019-05-22T12:46:31.787Z,101042.17
2019-05-22T12:48:58.621Z,101050.19
2019-05-22T12:51:25.463Z,101048.00
2019-05-22T12:53:52.229Z,101055.23
2019-05-22T12:56:18.916Z,101058.03
2019-05-22T12:58:46.337Z,101051.81
2019-05-22T13:01:14.026Z,101058.03
2019-05-22T13:03:41.387Z,101058.23
2019-05-22T13:06:08.473Z,101050.28
2019-05-22T13:08:36.541Z,101054.89
2019-05-22T13:11:05.435Z,101074.01
2019-05-22T13:13:32.267Z,101071.22
2019-05-22T13:15:59.665Z,101072.41
2019-05-22T13:18:26.506Z,101071.17
2019-05-22T13:20:53.374Z,101070.55
2019-05-22T13:23:22.503Z,101054.45
2019-05-22T13:25:49.910Z,101069.61
2019-05-22T13:28:17.514Z,101062.77
2019-05-22T13:30:49.097Z,101064.39
2019-05-22T13:33:18.573Z,101071.27
2019-05-22T13:35:45.373Z,101062.20
2019-05-22T13:38:13.515Z,101071.77
2019-05-22T13:40:41.266Z,101069.73
2019-05-22T13:43:08.075Z,101082.31
2019-05-22T13:45:34.956Z,101072.48
2019-05-22T13:48:01.828Z,101080.50
2019-05-22T13:50:29.526Z,101071.91
2019-05-22T13:52:57.687Z,101090.37
2019-05-22T13:55:24.481Z,101105.15
2019-05-22T13:57:51.633Z,101091.15
2019-05-22T14:00:21.210Z,101099.95
2019-05-22T14:02:48.117Z,101105.38
2019-05-22T14:05:16.251Z,101112.19
2019-05-22T14:07:44.162Z,101107.16
2019-05-22T14:10:13.128Z,101104.84
2019-05-22T14:12:40.428Z,101107.23
2019-05-22T14:15:07.303Z,101107.67
2019-05-22T14:17:34.275Z,101112.67
2019-05-22T14:20:00.950Z,101115.06
2019-05-22T14:22:27.722Z,101118.72
2019-05-22T14:24:55.838Z,101111.75
2019-05-22T14:27:22.776Z,101120.95
2019-05-22T14:29:49.530Z,101122.72
2019-05-22T14:32:16.307Z,101126.16
2019-05-22T14:34:43.743Z,101128.78
2019-05-22T14:37:11.632Z,101127.58
2019-05-22T14:39:39.115Z,101125.53
2019-05-22T14:42:06.418Z,101122.50
2019-05-22T14:44:34.161Z,101118.11
2019-05-22T14:47:13.042Z,101120.56
2019-05-22T14:49:31.554Z,101122.94
2019-05-22T14:51:58.242Z,101121.55
2019-05-22T14:54:27.821Z,101129.69
2019-05-22T14:56:56.769Z,101139.69
2019-05-22T14:59:26.312Z,101125.63
2019-05-22T15:01:56.494Z,101133.40
2019-05-22T15:04:24.510Z,101125.37
2019-05-22T15:06:51.710Z,101127.16
2019-05-22T15:09:18.547Z,101136.16
2019-05-22T15:11:46.178Z,101129.85
2019-05-22T15:14:13.031Z,101128.36
2019-05-22T15:16:39.935Z,101131.87
2019-05-22T15:19:09.006Z,101135.18
2019-05-22T15:21:36.228Z,101134.66
2019-05-22T15:24:05.785Z,101137.28
2019-05-22T15:26:32.852Z,101133.67
2019-05-22T15:29:00.254Z,101139.63
2019-05-22T15:31:27.072Z,101142.50
2019-05-22T15:33:55.415Z,101140.25
2019-05-22T15:36:24.183Z,101143.39
2019-05-22T15:38:52.289Z,101139.97
2019-05-22T15:41:19.778Z,101139.58
2019-05-22T15:43:52.128Z,101140.31
2019-05-22T15:46:16.755Z,101134.39
2019-05-22T15:48:46.722Z,101133.94
2019-05-22T15:51:13.943Z,101056.18
2019-05-22T15:53:41.838Z,101140.08
2019-05-22T15:56:09.930Z,101143.98
2019-05-22T15:58:39.416Z,101137.25
2019-05-22T16:01:07.521Z,101140.24
2019-05-22T16:03:36.722Z,101144.36
2019-05-22T16:06:04.668Z,101137.14
2019-05-22T16:08:32.556Z,101088.82
2019-05-22T16:11:00.668Z,101140.47
2019-05-22T16:13:31.593Z,101145.09
2019-05-22T16:15:59.101Z,101142.78
2019-05-22T16:18:26.815Z,101141.81
2019-05-22T16:20:54.151Z,101144.80
2019-05-22T16:23:22.143Z,101136.08
2019-05-22T16:25:49.144Z,101141.07
2019-05-22T16:28:17.154Z,101149.13
2019-05-22T16:30:44.450Z,101147.29
2019-05-22T16:33:12.332Z,101151.30
2019-05-22T16:35:39.904Z,101143.11
2019-05-22T16:38:07.195Z,101146.25
2019-05-22T16:40:34.512Z,101148.66
2019-05-22T16:43:01.291Z,101149.42
2019-05-22T16:45:31.599Z,101153.20
2019-05-22T16:48:00.782Z,101158.25
2019-05-22T16:50:28.569Z,101155.22
2019-05-22T16:52:55.853Z,101159.89
2019-05-22T16:55:23.375Z,101154.02
2019-05-22T16:57:50.146Z,101163.28
2019-05-22T17:00:18.120Z,101161.88
2019-05-22T17:02:45.035Z,101163.21
2019-05-22T17:05:12.497Z,101164.08
2019-05-22T17:07:40.533Z,101165.09
2019-05-22T17:10:08.127Z,101172.05
2019-05-22T17:12:36.274Z,101166.45
2019-05-22T17:15:03.607Z,101169.37
2019-05-22T17:17:30.621Z,101167.08
2019-05-22T17:19:57.689Z,101165.09
2019-05-22T17:22:25.126Z,101167.03
2019-05-22T17:24:51.918Z,101169.88
2019-05-22T17:27:20.611Z,101170.82
2019-05-22T17:29:50.262Z,101166.47
2019-05-22T17:32:17.642Z,101169.12
2019-05-22T17:34:44.632Z,101161.92
2019-05-22T17:37:13.509Z,101163.72
2019-05-22T17:39:43.809Z,101164.14
2019-05-22T17:42:13.644Z,101161.77
2019-05-22T17:44:41.511Z,101158.20
2019-05-22T17:47:09.809Z,101162.07
2019-05-22T17:49:40.684Z,101161.80
2019-05-22T17:52:07.717Z,101168.78
2019-05-22T17:54:34.900Z,101170.75
2019-05-22T17:57:03.094Z,101170.63
2019-05-22T17:59:29.990Z,101164.06
2019-05-22T18:01:57.204Z,101169.95
2019-05-22T18:04:23.994Z,101168.23
2019-05-22T18:06:51.979Z,101167.16
2019-05-22T18:09:20.150Z,101171.02
2019-05-22T18:11:47.340Z,101174.90
2019-05-22T18:14:15.094Z,101180.59
2019-05-22T18:16:42.399Z,101172.57
2019-05-22T18:19:10.792Z,101177.22
2019-05-22T18:21:39.348Z,101183.88
2019-05-22T18:24:08.269Z,101179.72
2019-05-22T18:26:35.246Z,101187.83
2019-05-22T18:29:01.927Z,101189.87
2019-05-22T18:31:29.841Z,101191.04
2019-05-22T18:33:57.709Z,101188.53
2019-05-22T18:36:24.413Z,101191.33
2019-05-22T18:38:51.285Z,101192.60
2019-05-22T18:41:17.962Z,101193.47
2019-05-22T18:43:44.658Z,101168.05
2019-05-22T18:46:11.354Z,101189.99
2019-05-22T18:48:38.351Z,101188.13
2019-05-22T18:51:06.780Z,101186.64
2019-05-22T18:53:33.898Z,101195.33
2019-05-22T18:56:01.086Z,101196.19
2019-05-22T18:58:28.569Z,101196.26
2019-05-22T19:00:55.450Z,101198.00
2019-05-22T19:03:22.560Z,101198.37
2019-05-22T19:05:49.624Z,101201.48
2019-05-22T19:08:16.421Z,101204.62
2019-05-22T19:10:43.443Z,101206.04
2019-05-22T19:13:10.467Z,101208.62
2019-05-22T19:15:38.190Z,101213.85
2019-05-22T19:18:05.262Z,101218.56
2019-05-22T19:20:33.142Z,101217.57
2019-05-22T19:23:01.756Z,101212.33
2019-05-22T19:25:29.057Z,101212.22
2019-05-22T19:27:55.851Z,101212.00
2019-05-22T19:30:26.498Z,101210.92
2019-05-22T19:32:53.187Z,101210.68
2019-05-22T19:35:20.004Z,101204.06
2019-05-22T19:37:46.981Z,101204.33
2019-05-22T19:40:15.080Z,101204.33
2019-05-22T19:42:42.166Z,101208.78
2019-05-22T19:45:10.299Z,101217.13
2019-05-22T19:47:40.902Z,101217.13
2019-05-22T19:50:22.237Z,101214.95
2019-05-22T19:52:41.754Z,101217.63
2019-05-22T19:55:09.469Z,101215.14
2019-05-22T19:57:37.364Z,101217.08
2019-05-22T20:00:04.461Z,101217.08
2019-05-22T20:02:33.280Z,101219.59
2019-05-22T20:05:00.182Z,101219.59
2019-05-22T20:07:27.470Z,101213.39
2019-05-22T20:09:54.614Z,101213.39
2019-05-22T20:12:24.861Z,101217.38
2019-05-22T20:14:50.939Z,101216.56
2019-05-22T20:17:17.848Z,101216.56
2019-05-22T20:19:45.022Z,101218.91
2019-05-22T20:22:14.110Z,101216.84
2019-05-22T20:24:40.827Z,101214.69
2019-05-22T20:27:09.699Z,101218.60
2019-05-22T20:29:36.699Z,101217.34
2019-05-22T20:32:04.911Z,101212.06
2019-05-22T20:34:33.075Z,101216.23
2019-05-22T20:36:59.867Z,101212.85
2019-05-22T20:39:29.703Z,101217.32
2019-05-22T20:41:56.681Z,101211.20
2019-05-22T20:44:24.344Z,101212.61
2019-05-22T20:46:52.020Z,101210.02
2019-05-22T20:49:18.806Z,101211.27
2019-05-22T20:51:46.433Z,101211.17
2019-05-22T20:54:14.413Z,101215.71
2019-05-22T20:56:43.119Z,101215.22
2019-05-22T20:59:09.991Z,101214.08
2019-05-22T21:01:36.797Z,101215.38
2019-05-22T21:04:05.757Z,101215.38
2019-05-22T21:06:39.391Z,101210.91
2019-05-22T21:09:06.537Z,101207.00
2019-05-22T21:11:33.890Z,101213.89
2019-05-22T21:14:00.795Z,101210.35
2019-05-22T21:16:27.855Z,101214.85
2019-05-22T21:18:56.746Z,101213.41
2019-05-22T21:21:24.335Z,101217.80
2019-05-22T21:23:51.246Z,101223.23
2019-05-22T21:26:20.251Z,101221.46
2019-05-22T21:28:47.872Z,101215.73
2019-05-22T21:31:15.777Z,101216.98
2019-05-22T21:33:47.435Z,101223.73
2019-05-22T21:36:15.691Z,101221.22
2019-05-22T21:38:45.886Z,101219.23
2019-05-22T21:41:13.191Z,101223.48
2019-05-22T21:43:40.427Z,101217.27
2019-05-22T21:46:08.172Z,101217.03
2019-05-22T21:48:35.954Z,101217.03
2019-05-22T21:51:02.867Z,101219.19
2019-05-22T21:53:30.544Z,101227.84
2019-05-22T21:56:04.583Z,101221.69
2019-05-22T21:58:27.335Z,101217.80
2019-05-22T22:01:26.537Z,101219.92
2019-05-22T22:04:00.632Z,101217.55
2019-05-22T22:06:27.979Z,101220.34
2019-05-22T22:08:54.839Z,101215.58
2019-05-22T22:11:23.754Z,101220.25
2019-05-22T22:13:50.628Z,101218.32
2019-05-22T22:16:18.163Z,101222.11
2019-05-22T22:18:45.493Z,101225.86
2019-05-22T22:21:12.877Z,101227.28
2019-05-22T22:23:40.303Z,101222.06
2019-05-22T22:26:24.749Z,101230.44
2019-05-22T22:28:39.511Z,101233.45
2019-05-22T22:31:08.333Z,101233.70
2019-05-22T22:33:36.205Z,101231.94
2019-05-22T22:36:03.593Z,101240.70
2019-05-22T22:38:32.306Z,101238.20
2019-05-22T22:40:59.086Z,101239.69
2019-05-22T22:43:29.865Z,101243.71
2019-05-22T22:46:05.689Z,101244.20
2019-05-22T22:48:34.933Z,101247.70
2019-05-22T22:51:05.545Z,101248.72
2019-05-22T22:53:32.263Z,101250.22
2019-05-22T22:55:59.130Z,101247.34
2019-05-22T22:58:27.224Z,101242.60
2019-05-22T23:00:54.514Z,101245.22
2019-05-22T23:03:23.643Z,101248.73
2019-05-22T23:05:51.966Z,101243.22
2019-05-22T23:08:24.021Z,101243.84
2019-05-22T23:10:52.325Z,101245.99
2019-05-22T23:13:20.616Z,101241.59
2019-05-22T23:15:50.105Z,101234.74
2019-05-22T23:19:07.658Z,101233.22
2019-05-22T23:21:35.432Z,101236.73
2019-05-22T23:24:01.403Z,101233.23
2019-05-22T23:26:29.854Z,101235.21
2019-05-22T23:28:57.679Z,101234.99
2019-05-22T23:31:24.367Z,101237.49
2019-05-22T23:33:51.607Z,101237.73
2019-05-22T23:36:19.915Z,101241.48
2019-05-22T23:38:47.690Z,101234.72
2019-05-22T23:41:14.781Z,101231.35
2019-05-22T23:43:41.869Z,101234.09
2019-05-22T23:46:10.786Z,101235.98
2019-05-22T23:48:38.378Z,101231.70
2019-05-22T23:51:05.270Z,101224.61
2019-05-22T23:53:32.252Z,101225.34
2019-05-22T23:55:59.539Z,101222.09
2019-05-22T23:58:27.007Z,101224.48
